createdAt,value
2018-06-09T00:00:17.510Z,20.50
2018-06-09T00:02:45.266Z,20.50
2018-06-09T00:05:13.004Z,20.50
2018-06-09T00:07:40.674Z,20.50
2018-06-09T00:10:08.352Z,20.50
2018-06-09T00:12:36.068Z,20.40
2018-06-09T00:15:03.844Z,20.20
2018-06-09T00:17:31.647Z,20.20
2018-06-09T00:19:59.413Z,20.10
2018-06-09T00:22:27.208Z,20.00
2018-06-09T00:24:54.872Z,20.00
2018-06-09T00:27:22.638Z,20.10
2018-06-09T00:29:50.338Z,20.10
2018-06-09T00:32:17.989Z,20.10
2018-06-09T00:34:45.564Z,20.10
2018-06-09T00:39:40.842Z,20.10
2018-06-09T00:42:08.469Z,20.00
2018-06-09T00:44:36.185Z,20.10
2018-06-09T00:47:03.972Z,20.10
2018-06-09T00:51:59.359Z,20.10
2018-06-09T00:54:27.227Z,20.20
2018-06-09T00:56:55.108Z,20.20
2018-06-09T00:59:22.831Z,20.20
2018-06-09T01:01:50.518Z,20.20
2018-06-09T01:04:18.180Z,20.20
2018-06-09T01:06:45.803Z,20.30
2018-06-09T01:09:13.450Z,20.30
2018-06-09T01:11:41.054Z,20.20
2018-06-09T01:14:08.676Z,20.10
2018-06-09T01:16:36.265Z,20.10
2018-06-09T01:19:03.860Z,19.80
2018-06-09T01:21:31.459Z,19.60
2018-06-09T01:23:59.069Z,19.50
2018-06-09T01:26:26.686Z,19.40
2018-06-09T01:28:54.288Z,19.40
2018-06-09T01:31:21.903Z,19.30
2018-06-09T01:33:49.528Z,19.30
2018-06-09T01:36:17.140Z,19.40
2018-06-09T01:38:44.752Z,19.40
2018-06-09T01:41:12.382Z,19.40
2018-06-09T01:43:39.990Z,19.40
2018-06-09T01:46:07.653Z,19.20
2018-06-09T01:48:35.262Z,19.20
2018-06-09T01:51:02.920Z,19.20
2018-06-09T01:53:30.598Z,19.20
2018-06-09T01:55:58.130Z,19.20
2018-06-09T01:58:25.738Z,19.20
2018-06-09T02:00:53.399Z,19.30
2018-06-09T02:03:21.004Z,19.30
2018-06-09T02:05:48.574Z,19.20
2018-06-09T02:08:16.194Z,19.20
2018-06-09T02:10:43.813Z,19.20
2018-06-09T02:13:11.452Z,19.20
2018-06-09T02:15:38.999Z,19.00
2018-06-09T02:18:06.623Z,19.10
2018-06-09T02:20:34.267Z,18.90
2018-06-09T02:23:01.874Z,18.80
2018-06-09T02:25:29.522Z,18.70
2018-06-09T02:27:57.154Z,18.70
2018-06-09T02:30:24.761Z,18.70
2018-06-09T02:32:52.376Z,18.70
2018-06-09T02:35:19.965Z,18.70
2018-06-09T02:37:48.397Z,18.70
2018-06-09T02:40:16.059Z,18.80
2018-06-09T02:42:43.742Z,18.80
2018-06-09T02:45:11.361Z,18.90
2018-06-09T02:50:06.605Z,18.70
2018-06-09T02:55:01.995Z,18.60
2018-06-09T02:57:29.564Z,18.70
2018-06-09T02:59:57.220Z,18.60
2018-06-09T03:02:24.845Z,18.60
2018-06-09T03:04:52.422Z,18.60
2018-06-09T03:07:20.061Z,18.60
2018-06-09T03:09:47.722Z,18.60
2018-06-09T03:12:15.339Z,18.60
2018-06-09T03:14:42.977Z,18.50
2018-06-09T03:17:10.624Z,18.40
2018-06-09T03:19:38.252Z,18.30
2018-06-09T03:22:05.869Z,18.40
2018-06-09T03:24:33.484Z,18.50
2018-06-09T03:27:01.085Z,18.70
2018-06-09T03:29:28.732Z,18.80
2018-06-09T03:31:56.441Z,18.80
2018-06-09T03:34:23.970Z,18.80
2018-06-09T03:36:51.560Z,18.80
2018-06-09T03:41:46.850Z,18.90
2018-06-09T03:44:14.558Z,19.10
2018-06-09T03:46:42.165Z,19.20
2018-06-09T03:49:09.811Z,19.10
2018-06-09T03:51:37.371Z,19.20
2018-06-09T03:54:05.134Z,19.40
2018-06-09T03:56:32.775Z,19.30
2018-06-09T03:59:00.467Z,19.50
2018-06-09T04:03:55.803Z,19.40
2018-06-09T04:06:23.339Z,19.50
2018-06-09T04:08:50.970Z,19.60
2018-06-09T04:11:18.569Z,19.80
2018-06-09T04:13:46.180Z,20.00
2018-06-09T04:16:13.824Z,20.10
2018-06-09T04:18:41.490Z,20.30
2018-06-09T04:21:09.118Z,20.30
2018-06-09T04:23:36.680Z,20.20
2018-06-09T04:26:04.555Z,20.10
2018-06-09T04:28:32.170Z,20.00
2018-06-09T04:35:55.236Z,20.40
2018-06-09T04:38:22.895Z,20.50
2018-06-09T04:40:50.619Z,20.60
2018-06-09T04:43:18.288Z,20.50
2018-06-09T04:45:45.950Z,20.60
2018-06-09T04:48:13.544Z,20.60
2018-06-09T04:50:41.189Z,20.60
2018-06-09T04:53:08.857Z,20.60
2018-06-09T04:55:36.423Z,20.60
2018-06-09T04:58:04.022Z,20.70
2018-06-09T05:05:26.957Z,20.80
2018-06-09T05:07:54.607Z,21.00
2018-06-09T05:10:22.265Z,21.10
2018-06-09T05:12:49.957Z,21.30
2018-06-09T05:15:17.554Z,21.50
2018-06-09T05:17:45.193Z,21.60
2018-06-09T05:20:12.815Z,21.60
2018-06-09T05:22:40.400Z,21.90
2018-06-09T05:25:08.273Z,21.90
2018-06-09T05:27:35.850Z,21.90
2018-06-09T05:30:04.071Z,22.00
2018-06-09T05:32:31.743Z,22.20
2018-06-09T05:34:59.437Z,22.40
2018-06-09T05:37:27.132Z,22.20
2018-06-09T05:42:22.493Z,22.40
2018-06-09T05:44:50.161Z,22.50
2018-06-09T05:47:17.770Z,22.50
2018-06-09T05:49:45.442Z,22.50
2018-06-09T05:54:40.809Z,22.80
2018-06-09T05:57:08.456Z,23.00
2018-06-09T05:59:36.100Z,23.10
2018-06-09T06:02:03.779Z,23.20
2018-06-09T06:04:31.461Z,23.20
2018-06-09T06:06:59.190Z,23.20
2018-06-09T06:09:26.854Z,23.30
2018-06-09T06:11:54.538Z,23.40
2018-06-09T06:14:22.171Z,23.40
2018-06-09T06:16:49.836Z,23.70
2018-06-09T06:19:17.485Z,23.90
2018-06-09T06:21:45.039Z,24.00
2018-06-09T06:24:12.724Z,24.20
2018-06-09T06:26:40.423Z,24.10
2018-06-09T06:29:08.068Z,24.00
2018-06-09T06:31:35.724Z,24.10
2018-06-09T06:34:03.400Z,24.30
2018-06-09T06:36:31.104Z,24.60
2018-06-09T06:38:58.698Z,24.80
2018-06-09T06:41:26.406Z,25.30
2018-06-09T06:43:55.253Z,25.00
2018-06-09T06:46:22.920Z,25.30
2018-06-09T06:48:50.563Z,25.70
2018-06-09T06:51:18.186Z,25.80
2018-06-09T06:53:45.781Z,26.10
2018-06-09T06:56:13.445Z,26.40
2018-06-09T06:58:41.078Z,26.60
2018-06-09T07:01:08.696Z,26.70
2018-06-09T07:03:36.319Z,26.80
2018-06-09T07:06:04.149Z,26.70
2018-06-09T07:08:31.741Z,26.40
2018-06-09T07:10:59.573Z,27.00
2018-06-09T07:13:27.287Z,26.50
2018-06-09T07:15:54.827Z,27.00
2018-06-09T07:18:22.503Z,27.30
2018-06-09T07:20:50.106Z,27.50
2018-06-09T07:23:17.687Z,27.40
2018-06-09T07:25:45.372Z,27.30
2018-06-09T07:28:12.961Z,27.60
2018-06-09T07:30:40.573Z,27.70
2018-06-09T07:33:08.163Z,28.10
2018-06-09T07:35:35.762Z,28.10
2018-06-09T07:38:03.391Z,28.10
2018-06-09T07:40:30.969Z,27.70
2018-06-09T07:42:58.602Z,27.60
2018-06-09T07:45:26.222Z,27.70
2018-06-09T07:47:53.868Z,28.10
2018-06-09T07:50:21.524Z,28.10
2018-06-09T07:52:49.188Z,28.00
2018-06-09T07:55:16.812Z,28.10
2018-06-09T07:57:44.509Z,27.90
2018-06-09T08:00:19.242Z,27.80
2018-06-09T08:02:46.801Z,27.80
2018-06-09T08:05:14.428Z,27.50
2018-06-09T08:07:42.028Z,27.70
2018-06-09T08:10:10.467Z,28.00
2018-06-09T08:12:38.181Z,27.80
2018-06-09T08:15:05.830Z,28.10
2018-06-09T08:17:33.498Z,28.40
2018-06-09T08:20:01.213Z,28.50
2018-06-09T08:22:28.919Z,29.10
2018-06-09T08:27:24.860Z,28.60
2018-06-09T08:29:52.505Z,28.80
2018-06-09T08:32:20.124Z,29.30
2018-06-09T08:34:47.735Z,28.70
2018-06-09T08:37:15.429Z,28.80
2018-06-09T08:39:43.005Z,29.00
2018-06-09T08:42:10.668Z,29.00
2018-06-09T08:44:38.262Z,29.20
2018-06-09T08:47:05.882Z,29.10
2018-06-09T08:49:33.552Z,29.20
2018-06-09T08:52:01.183Z,28.90
2018-06-09T08:54:28.786Z,28.80
2018-06-09T08:56:56.498Z,29.20
2018-06-09T08:59:24.128Z,29.40
2018-06-09T09:01:51.734Z,29.10
2018-06-09T09:04:19.298Z,28.80
2018-06-09T09:06:46.890Z,28.90
2018-06-09T09:09:14.554Z,29.10
2018-06-09T09:11:42.270Z,29.10
2018-06-09T09:14:09.897Z,28.80
2018-06-09T09:16:37.523Z,29.30
2018-06-09T09:19:05.213Z,29.60
2018-06-09T09:21:32.860Z,29.30
2018-06-09T09:24:00.580Z,29.30
2018-06-09T09:26:28.264Z,29.60
2018-06-09T09:28:55.879Z,30.00
2018-06-09T09:31:23.523Z,30.00
2018-06-09T09:33:51.216Z,30.30
2018-06-09T09:36:18.822Z,30.40
2018-06-09T09:38:46.511Z,30.50
2018-06-09T09:41:14.096Z,30.60
2018-06-09T09:43:41.747Z,30.60
2018-06-09T09:46:09.319Z,30.30
2018-06-09T09:48:37.074Z,30.30
2018-06-09T09:51:05.107Z,30.40
2018-06-09T09:53:33.323Z,30.50
2018-06-09T09:56:01.051Z,30.40
2018-06-09T09:58:29.169Z,30.80
2018-06-09T10:00:56.827Z,30.50
2018-06-09T10:03:25.261Z,30.70
2018-06-09T10:05:52.871Z,31.50
2018-06-09T10:08:20.552Z,31.40
2018-06-09T10:10:48.250Z,31.50
2018-06-09T10:13:15.902Z,31.50
2018-06-09T10:15:43.485Z,31.60
2018-06-09T10:18:11.089Z,32.00
2018-06-09T10:20:38.733Z,31.80
2018-06-09T10:23:06.333Z,31.80
2018-06-09T10:25:34.292Z,31.80
2018-06-09T10:28:01.903Z,31.70
2018-06-09T10:30:29.521Z,31.10
2018-06-09T10:32:57.096Z,31.40
2018-06-09T10:35:24.815Z,31.20
2018-06-09T10:37:52.395Z,31.10
2018-06-09T10:42:48.693Z,30.90
2018-06-09T10:45:16.446Z,30.80
2018-06-09T10:50:11.641Z,30.30
2018-06-09T10:52:39.296Z,30.30
2018-06-09T10:55:07.015Z,30.20
2018-06-09T10:57:34.724Z,30.40
2018-06-09T11:00:02.325Z,30.50
2018-06-09T11:02:29.954Z,30.60
2018-06-09T11:04:57.571Z,30.80
2018-06-09T11:07:25.172Z,30.80
2018-06-09T11:09:52.817Z,31.10
2018-06-09T11:12:20.430Z,31.10
2018-06-09T11:14:48.121Z,30.90
2018-06-09T11:17:15.758Z,31.10
2018-06-09T11:19:43.334Z,30.80
2018-06-09T11:22:10.998Z,30.90
2018-06-09T11:24:38.616Z,30.90
2018-06-09T11:27:06.266Z,30.90
2018-06-09T11:29:33.849Z,30.70
2018-06-09T11:32:01.528Z,30.90
2018-06-09T11:34:29.177Z,31.10
2018-06-09T11:36:56.789Z,30.90
2018-06-09T11:39:24.539Z,30.90
2018-06-09T11:41:52.273Z,30.90
2018-06-09T11:44:19.877Z,31.00
2018-06-09T11:46:47.567Z,31.20
2018-06-09T11:49:15.183Z,31.20
2018-06-09T11:51:43.091Z,31.50
2018-06-09T11:54:10.731Z,31.70
2018-06-09T11:56:38.320Z,32.30
2018-06-09T11:59:06.414Z,32.90
2018-06-09T12:01:33.972Z,33.60
2018-06-09T12:04:01.542Z,34.60
2018-06-09T12:06:29.298Z,34.90
2018-06-09T12:08:56.997Z,35.20
2018-06-09T12:11:24.656Z,36.10
2018-06-09T12:13:52.257Z,36.10
2018-06-09T12:16:19.945Z,35.90
2018-06-09T12:18:47.569Z,36.60
2018-06-09T12:21:15.489Z,36.30
2018-06-09T12:23:43.381Z,36.30
2018-06-09T12:26:10.967Z,36.10
2018-06-09T12:28:38.607Z,35.50
2018-06-09T12:31:06.265Z,34.80
2018-06-09T12:33:33.949Z,33.90
2018-06-09T12:36:01.747Z,33.90
2018-06-09T12:38:30.392Z,34.20
2018-06-09T12:40:58.037Z,33.90
2018-06-09T12:43:25.687Z,33.30
2018-06-09T12:45:53.231Z,33.80
2018-06-09T12:48:20.798Z,33.80
2018-06-09T12:50:48.432Z,33.30
2018-06-09T12:53:16.071Z,33.40
2018-06-09T12:55:43.710Z,33.40
2018-06-09T12:58:11.350Z,33.90
2018-06-09T13:00:38.977Z,34.40
2018-06-09T13:03:06.672Z,34.40
2018-06-09T13:05:34.387Z,34.70
2018-06-09T13:08:03.118Z,35.20
2018-06-09T13:10:30.752Z,34.90
2018-06-09T13:12:58.454Z,34.90
2018-06-09T13:15:26.105Z,35.60
2018-06-09T13:17:53.749Z,36.20
2018-06-09T13:20:22.129Z,36.40
2018-06-09T13:22:49.827Z,36.10
2018-06-09T13:25:17.470Z,35.90
2018-06-09T13:27:45.088Z,36.20
2018-06-09T13:30:14.724Z,36.80
2018-06-09T13:32:42.436Z,38.20
2018-06-09T13:35:10.004Z,39.70
2018-06-09T13:37:37.804Z,40.50
2018-06-09T13:40:05.741Z,41.50
2018-06-09T13:42:33.317Z,41.50
2018-06-09T13:45:01.039Z,42.00
2018-06-09T13:47:28.716Z,42.30
2018-06-09T13:49:56.263Z,42.30
2018-06-09T13:52:23.885Z,42.00
2018-06-09T13:54:51.547Z,41.80
2018-06-09T13:59:46.842Z,39.60
2018-06-09T14:02:14.464Z,38.70
2018-06-09T14:04:42.098Z,38.30
2018-06-09T14:09:37.672Z,38.30
2018-06-09T14:12:05.452Z,38.20
2018-06-09T14:14:33.466Z,37.60
2018-06-09T14:17:01.290Z,37.00
2018-06-09T14:19:28.975Z,36.40
2018-06-09T14:21:56.698Z,36.50
2018-06-09T14:24:24.290Z,36.80
2018-06-09T14:26:52.598Z,36.00
2018-06-09T14:31:47.917Z,36.30
2018-06-09T14:34:15.487Z,36.10
2018-06-09T14:36:43.165Z,36.60
2018-06-09T14:39:10.814Z,36.30
2018-06-09T14:41:38.493Z,36.30
2018-06-09T14:44:06.227Z,36.20
2018-06-09T14:46:33.869Z,35.70
2018-06-09T14:49:01.531Z,35.00
2018-06-09T14:51:29.115Z,34.80
2018-06-09T14:53:56.962Z,34.50
2018-06-09T14:56:24.593Z,34.60
2018-06-09T14:58:52.162Z,34.00
2018-06-09T15:01:19.749Z,34.00
2018-06-09T15:03:47.390Z,32.80
2018-06-09T15:06:14.973Z,31.00
2018-06-09T15:08:42.574Z,29.50
2018-06-09T15:11:10.290Z,28.50
2018-06-09T15:13:37.830Z,27.90
2018-06-09T15:16:05.397Z,27.40
2018-06-09T15:18:33.046Z,26.70
2018-06-09T15:21:00.687Z,25.90
2018-06-09T15:23:28.282Z,24.80
2018-06-09T15:25:55.871Z,24.00
2018-06-09T15:28:23.556Z,23.70
2018-06-09T15:30:51.232Z,23.60
2018-06-09T15:33:18.853Z,23.50
2018-06-09T15:35:46.453Z,23.50
2018-06-09T15:38:14.103Z,23.00
2018-06-09T15:40:41.815Z,22.70
2018-06-09T15:43:09.477Z,23.10
2018-06-09T15:45:37.347Z,23.50
2018-06-09T15:48:04.985Z,24.20
2018-06-09T15:50:32.618Z,24.70
2018-06-09T15:53:00.271Z,25.00
2018-06-09T15:55:27.823Z,25.20
2018-06-09T15:57:55.509Z,25.80
2018-06-09T16:00:23.224Z,26.50
2018-06-09T16:02:50.852Z,27.20
2018-06-09T16:05:18.461Z,27.30
2018-06-09T16:07:46.174Z,27.40
2018-06-09T16:10:13.738Z,28.30
2018-06-09T16:12:41.537Z,29.60
2018-06-09T16:15:09.234Z,29.00
2018-06-09T16:20:04.779Z,30.30
2018-06-09T16:22:32.440Z,30.80
2018-06-09T16:27:28.816Z,29.10
2018-06-09T16:29:56.683Z,28.70
2018-06-09T16:32:24.345Z,29.30
2018-06-09T16:34:51.982Z,30.00
2018-06-09T16:37:19.602Z,31.20
2018-06-09T16:39:47.219Z,31.20
2018-06-09T16:42:14.848Z,30.30
2018-06-09T16:44:42.553Z,31.30
2018-06-09T16:47:10.151Z,31.20
2018-06-09T16:49:37.835Z,31.40
2018-06-09T16:52:05.714Z,32.00
2018-06-09T16:54:33.383Z,31.30
2018-06-09T16:57:01.031Z,33.10
2018-06-09T16:59:28.659Z,34.10
2018-06-09T17:01:56.594Z,34.50
2018-06-09T17:04:24.229Z,34.20
2018-06-09T17:06:51.921Z,32.80
2018-06-09T17:09:19.506Z,32.70
2018-06-09T17:11:47.106Z,32.70
2018-06-09T17:14:14.738Z,32.50
2018-06-09T17:16:42.414Z,32.90
2018-06-09T17:19:10.063Z,32.60
2018-06-09T17:21:37.719Z,31.60
2018-06-09T17:24:05.328Z,30.30
2018-06-09T17:26:32.986Z,29.60
2018-06-09T17:29:00.696Z,28.70
2018-06-09T17:31:28.407Z,27.90
2018-06-09T17:33:56.070Z,27.20
2018-06-09T17:36:23.931Z,26.60
2018-06-09T17:38:51.589Z,26.40
2018-06-09T17:41:19.225Z,26.30
2018-06-09T17:43:46.818Z,26.10
2018-06-09T17:46:14.443Z,26.00
2018-06-09T17:48:42.026Z,25.80
2018-06-09T17:51:09.763Z,25.60
2018-06-09T17:53:37.299Z,25.40
2018-06-09T17:56:04.920Z,25.10
2018-06-09T17:58:32.543Z,24.70
2018-06-09T18:01:00.143Z,24.70
2018-06-09T18:08:23.038Z,24.20
2018-06-09T18:10:50.640Z,24.30
2018-06-09T18:13:18.325Z,24.20
2018-06-09T18:15:46.082Z,24.30
2018-06-09T18:18:13.720Z,24.20
2018-06-09T18:20:41.348Z,24.20
2018-06-09T18:23:08.958Z,24.20
2018-06-09T18:25:36.570Z,24.10
2018-06-09T18:28:04.202Z,24.00
2018-06-09T18:30:31.789Z,24.00
2018-06-09T18:32:59.425Z,23.90
2018-06-09T18:35:27.100Z,23.80
2018-06-09T18:37:54.684Z,23.70
2018-06-09T18:40:22.337Z,23.70
2018-06-09T18:42:50.095Z,23.30
2018-06-09T18:45:17.741Z,23.10
2018-06-09T18:47:45.405Z,23.20
2018-06-09T18:50:13.005Z,23.20
2018-06-09T18:52:41.592Z,23.20
2018-06-09T18:55:09.242Z,23.10
2018-06-09T18:57:37.773Z,23.10
2018-06-09T19:00:05.697Z,23.00
2018-06-09T19:02:33.330Z,22.90
2018-06-09T19:05:00.945Z,23.00
2018-06-09T19:07:28.554Z,23.00
2018-06-09T19:09:56.238Z,23.00
2018-06-09T19:12:23.907Z,22.90
2018-06-09T19:14:51.634Z,22.80
2018-06-09T19:17:19.258Z,22.80
2018-06-09T19:19:47.064Z,22.90
2018-06-09T19:22:14.675Z,22.80
2018-06-09T19:24:42.371Z,22.80
2018-06-09T19:27:10.030Z,22.70
2018-06-09T19:29:37.722Z,22.70
2018-06-09T19:32:05.497Z,22.60
2018-06-09T19:34:33.168Z,22.60
2018-06-09T19:39:28.499Z,22.30
2018-06-09T19:41:56.158Z,22.20
2018-06-09T19:44:23.847Z,22.20
2018-06-09T19:46:51.434Z,22.10
2018-06-09T19:49:19.531Z,22.20
2018-06-09T19:51:47.229Z,22.30
2018-06-09T19:54:14.881Z,22.30
2018-06-09T19:56:42.479Z,22.30
2018-06-09T19:59:10.202Z,22.20
2018-06-09T20:04:05.608Z,22.40
2018-06-09T20:06:33.282Z,22.30
2018-06-09T20:09:01.025Z,22.30
2018-06-09T20:11:28.738Z,22.30
2018-06-09T20:13:56.542Z,22.30
2018-06-09T20:16:24.192Z,22.20
2018-06-09T20:18:51.919Z,22.30
2018-06-09T20:21:19.713Z,22.40
2018-06-09T20:23:47.354Z,22.40
2018-06-09T20:26:15.037Z,22.40
2018-06-09T20:28:42.833Z,22.30
2018-06-09T20:31:10.551Z,22.30
2018-06-09T20:33:38.210Z,22.40
2018-06-09T20:36:06.122Z,22.40
2018-06-09T20:38:33.820Z,22.30
2018-06-09T20:41:01.592Z,22.40
2018-06-09T20:45:57.778Z,22.30
2018-06-09T20:50:53.304Z,22.20
2018-06-09T20:53:20.946Z,22.10
2018-06-09T20:55:48.631Z,21.90
2018-06-09T20:58:16.307Z,21.80
2018-06-09T21:00:44.024Z,21.80
2018-06-09T21:03:11.640Z,21.70
2018-06-09T21:05:39.621Z,21.70
2018-06-09T21:08:07.300Z,21.60
2018-06-09T21:10:34.944Z,21.60
2018-06-09T21:13:02.892Z,21.50
2018-06-09T21:15:30.534Z,21.50
2018-06-09T21:17:58.186Z,21.50
2018-06-09T21:20:25.793Z,21.50
2018-06-09T21:22:53.373Z,21.40
2018-06-09T21:25:21.059Z,21.40
2018-06-09T21:27:54.789Z,21.40
2018-06-09T21:30:28.720Z,21.50
2018-06-09T21:33:02.323Z,21.40
2018-06-09T21:36:10.152Z,21.30
2018-06-09T21:38:42.813Z,21.20
2018-06-09T21:41:16.462Z,21.10
2018-06-09T21:43:49.909Z,21.20
2018-06-09T21:46:23.395Z,21.30
2018-06-09T21:48:51.005Z,21.20
2018-06-09T21:51:18.615Z,21.20
2018-06-09T21:53:46.183Z,21.30
2018-06-09T21:56:14.017Z,21.30
2018-06-09T21:58:41.669Z,21.40
2018-06-09T22:01:09.277Z,21.40
2018-06-09T22:03:36.838Z,21.40
2018-06-09T22:06:05.413Z,21.30
2018-06-09T22:08:33.028Z,21.30
2018-06-09T22:11:00.756Z,21.20
2018-06-09T22:13:28.331Z,21.20
2018-06-09T22:15:55.969Z,21.20
2018-06-09T22:18:23.634Z,21.20
2018-06-09T22:20:51.265Z,21.20
2018-06-09T22:23:18.853Z,21.20
2018-06-09T22:26:02.522Z,21.20
2018-06-09T22:28:30.160Z,21.20
2018-06-09T22:30:57.743Z,21.10
2018-06-09T22:33:25.313Z,21.10
2018-06-09T22:35:52.946Z,21.10
2018-06-09T22:38:20.573Z,21.00
2018-06-09T22:40:48.146Z,20.80
2018-06-09T22:43:15.795Z,20.60
2018-06-09T22:45:43.368Z,20.50
2018-06-09T22:48:10.938Z,20.50
2018-06-09T22:50:38.504Z,20.40
2018-06-09T22:53:06.197Z,20.30
2018-06-09T22:55:33.761Z,20.40
2018-06-09T22:58:01.449Z,20.30
2018-06-09T23:00:47.343Z,20.10
2018-06-09T23:03:16.001Z,20.00
2018-06-09T23:05:45.756Z,20.10
2018-06-09T23:08:13.297Z,19.90
2018-06-09T23:10:40.852Z,19.80
2018-06-09T23:13:08.477Z,19.70
2018-06-09T23:15:36.077Z,19.80
2018-06-09T23:18:03.754Z,19.80
2018-06-09T23:20:32.282Z,19.90
2018-06-09T23:22:59.835Z,19.90
2018-06-09T23:25:27.440Z,19.90
2018-06-09T23:27:55.577Z,20.00
2018-06-09T23:30:23.112Z,20.00
2018-06-09T23:32:51.042Z,20.00
2018-06-09T23:35:18.692Z,19.90
2018-06-09T23:37:46.240Z,19.90
2018-06-09T23:40:13.937Z,19.80
2018-06-09T23:42:41.572Z,19.70
2018-06-09T23:45:09.194Z,19.70
2018-06-09T23:47:36.862Z,19.60
2018-06-09T23:50:04.586Z,19.50
2018-06-09T23:52:32.307Z,19.50
2018-06-09T23:54:59.889Z,19.50
2018-06-09T23:57:27.471Z,19.50
2018-06-09T23:59:55.054Z,19.40
